createdAt,value
2022-11-22T00:00:40.946Z,87.40
2022-11-22T00:01:43.761Z,87.23
2022-11-22T00:02:47.848Z,87.65
2022-11-22T00:03:50.508Z,87.72
2022-11-22T00:04:54.266Z,87.84
2022-11-22T00:05:57.994Z,87.83
2022-11-22T00:07:00.926Z,87.99
2022-11-22T00:08:05.277Z,87.88
2022-11-22T00:09:08.136Z,88.07
2022-11-22T00:10:13.856Z,87.75
2022-11-22T00:11:16.640Z,87.96
2022-11-22T00:12:21.878Z,87.59
2022-11-22T00:13:24.528Z,87.72
2022-11-22T00:14:29.215Z,87.88
2022-11-22T00:15:31.992Z,88.00
2022-11-22T00:16:36.004Z,88.12
2022-11-22T00:17:39.177Z,87.68
2022-11-22T00:18:42.886Z,87.97
2022-11-22T00:19:49.938Z,87.81
2022-11-22T00:20:53.687Z,87.91
2022-11-22T00:21:56.361Z,87.95
2022-11-22T00:23:00.188Z,88.22
2022-11-22T00:24:02.837Z,88.33
2022-11-22T00:25:07.685Z,88.29
2022-11-22T00:26:12.367Z,88.30
2022-11-22T00:27:16.186Z,88.24
2022-11-22T00:28:20.256Z,88.11
2022-11-22T00:29:23.971Z,88.17
2022-11-22T00:30:26.642Z,87.92
2022-11-22T00:31:30.409Z,87.98
2022-11-22T00:32:33.049Z,87.65
2022-11-22T00:33:36.818Z,87.76
2022-11-22T00:34:39.527Z,87.59
2022-11-22T00:35:43.218Z,88.06
2022-11-22T00:36:45.898Z,87.88
2022-11-22T00:37:49.684Z,87.82
2022-11-22T00:38:53.029Z,88.00
2022-11-22T00:39:56.737Z,87.89
2022-11-22T00:40:59.397Z,87.79
2022-11-22T00:42:03.147Z,87.69
2022-11-22T00:43:05.765Z,87.91
2022-11-22T00:44:10.956Z,87.55
2022-11-22T00:45:13.677Z,87.16
2022-11-22T00:46:17.406Z,86.69
2022-11-22T00:47:20.029Z,86.60
2022-11-22T00:48:23.706Z,86.81
2022-11-22T00:49:26.399Z,86.87
2022-11-22T00:50:30.466Z,86.62
2022-11-22T00:51:34.299Z,86.92
2022-11-22T00:52:36.946Z,87.05
2022-11-22T00:53:40.696Z,87.13
2022-11-22T00:54:50.036Z,86.54
2022-11-22T00:55:55.276Z,87.17
2022-11-22T00:56:57.968Z,87.07
2022-11-22T00:58:01.730Z,87.35
2022-11-22T00:59:04.368Z,87.21
2022-11-22T01:00:11.203Z,86.92
2022-11-22T01:01:13.918Z,87.50
2022-11-22T01:02:17.675Z,86.85
2022-11-22T01:03:20.316Z,86.69
2022-11-22T01:04:24.229Z,86.81
2022-11-22T01:05:26.859Z,86.62
2022-11-22T01:06:30.566Z,86.71
2022-11-22T01:07:33.233Z,87.15
2022-11-22T01:08:37.154Z,87.38
2022-11-22T01:09:39.797Z,87.25
2022-11-22T01:10:43.476Z,87.25
2022-11-22T01:11:46.369Z,87.13
2022-11-22T01:12:50.178Z,86.85
2022-11-22T01:13:52.887Z,86.62
2022-11-22T01:14:56.668Z,86.87
2022-11-22T01:16:01.918Z,86.82
2022-11-22T01:17:05.569Z,87.16
2022-11-22T01:18:08.216Z,86.86
2022-11-22T01:19:12.223Z,87.08
2022-11-22T01:20:14.836Z,87.34
2022-11-22T01:21:18.558Z,87.50
2022-11-22T01:22:21.259Z,87.46
2022-11-22T01:23:25.006Z,87.96
2022-11-22T01:24:27.693Z,88.32
2022-11-22T01:25:31.467Z,88.74
2022-11-22T01:26:34.549Z,88.83
2022-11-22T01:27:38.407Z,89.09
2022-11-22T01:28:41.040Z,89.08
2022-11-22T01:29:44.748Z,89.75
2022-11-22T01:30:50.611Z,89.46
2022-11-22T01:31:56.016Z,90.04
2022-11-22T01:32:58.727Z,90.02
2022-11-22T01:34:02.468Z,89.94
2022-11-22T01:35:05.834Z,90.33
2022-11-22T01:36:09.786Z,90.55
2022-11-22T01:37:12.534Z,90.35
2022-11-22T01:38:16.367Z,90.59
2022-11-22T01:39:19.177Z,91.01
2022-11-22T01:40:22.968Z,90.99
2022-11-22T01:41:25.656Z,91.08
2022-11-22T01:42:43.662Z,91.23
2022-11-22T01:43:46.362Z,91.25
2022-11-22T01:44:50.335Z,91.21
2022-11-22T01:45:53.898Z,91.22
2022-11-22T01:46:59.666Z,91.11
2022-11-22T01:48:04.248Z,91.07
2022-11-22T01:50:49.286Z,90.76
2022-11-22T01:51:53.731Z,90.55
2022-11-22T01:52:58.115Z,90.28
2022-11-22T01:54:06.267Z,90.18
2022-11-22T01:55:11.999Z,90.13
2022-11-22T01:56:17.688Z,90.17
2022-11-22T01:57:23.535Z,89.86
2022-11-22T01:58:28.924Z,89.77
2022-11-22T01:59:34.674Z,90.02
2022-11-22T02:00:38.730Z,89.64
2022-11-22T02:01:42.689Z,89.38
2022-11-22T02:02:48.005Z,89.15
2022-11-22T02:03:53.305Z,88.87
2022-11-22T02:04:57.603Z,88.55
2022-11-22T02:06:01.362Z,88.59
2022-11-22T02:07:09.408Z,88.17
2022-11-22T02:08:17.083Z,88.43
2022-11-22T02:09:19.725Z,88.48
2022-11-22T02:10:25.248Z,88.31
2022-11-22T02:11:33.612Z,88.14
2022-11-22T02:12:38.075Z,87.75
2022-11-22T02:13:43.355Z,87.31
2022-11-22T02:14:47.603Z,87.41
2022-11-22T02:15:50.657Z,87.78
2022-11-22T02:16:54.472Z,87.69
2022-11-22T02:17:58.896Z,87.92
2022-11-22T02:19:02.691Z,87.84
2022-11-22T02:20:07.915Z,87.91
2022-11-22T02:21:12.013Z,87.69
2022-11-22T02:22:24.122Z,87.69
2022-11-22T02:23:36.263Z,87.12
2022-11-22T02:24:44.109Z,87.40
2022-11-22T02:25:54.935Z,87.61
2022-11-22T02:26:57.843Z,87.62
2022-11-22T02:28:01.579Z,87.60
2022-11-22T02:29:07.233Z,87.39
2022-11-22T02:30:12.050Z,87.59
2022-11-22T02:31:34.474Z,87.40
2022-11-22T02:32:38.329Z,87.56
2022-11-22T02:33:40.999Z,87.63
2022-11-22T02:34:46.044Z,87.21
2022-11-22T02:35:49.135Z,87.51
2022-11-22T02:36:55.222Z,86.96
2022-11-22T02:37:59.480Z,87.18
2022-11-22T02:39:03.133Z,87.32
2022-11-22T02:40:10.104Z,87.44
2022-11-22T02:41:14.245Z,86.75
2022-11-22T02:42:18.126Z,86.97
2022-11-22T02:43:22.395Z,86.90
2022-11-22T02:44:26.309Z,87.09
2022-11-22T02:45:29.154Z,86.95
2022-11-22T02:46:32.856Z,86.59
2022-11-22T02:47:35.563Z,86.55
2022-11-22T02:48:42.798Z,86.52
2022-11-22T02:49:45.508Z,86.31
2022-11-22T02:50:49.354Z,86.29
2022-11-22T02:51:52.737Z,85.55
2022-11-22T02:52:56.544Z,85.81
2022-11-22T02:53:59.227Z,85.96
2022-11-22T02:55:02.964Z,86.32
2022-11-22T02:56:06.064Z,86.61
2022-11-22T02:57:12.032Z,86.78
2022-11-22T02:58:14.775Z,86.66
2022-11-22T02:59:18.584Z,86.55
2022-11-22T03:00:21.323Z,86.50
2022-11-22T03:01:25.157Z,86.83
2022-11-22T03:02:27.947Z,86.45
2022-11-22T03:03:32.436Z,86.54
2022-11-22T03:04:36.205Z,86.38
2022-11-22T03:05:38.831Z,86.10
2022-11-22T03:06:42.575Z,86.86
2022-11-22T03:07:45.389Z,86.70
2022-11-22T03:08:54.667Z,86.79
2022-11-22T03:09:58.721Z,86.84
2022-11-22T03:11:02.464Z,86.44
2022-11-22T03:12:05.653Z,86.43
2022-11-22T03:13:10.934Z,86.68
2022-11-22T03:14:14.655Z,86.17
2022-11-22T03:15:18.546Z,85.85
2022-11-22T03:16:21.173Z,85.30
2022-11-22T03:17:24.891Z,85.83
2022-11-22T03:18:27.624Z,85.55
2022-11-22T03:19:31.557Z,85.62
2022-11-22T03:20:34.427Z,85.48
2022-11-22T03:21:38.254Z,85.61
2022-11-22T03:22:41.020Z,85.95
2022-11-22T03:23:44.883Z,86.16
2022-11-22T03:24:48.669Z,86.11
2022-11-22T03:25:51.360Z,85.72
2022-11-22T03:26:58.933Z,85.54
2022-11-22T03:28:01.665Z,85.39
2022-11-22T03:29:07.020Z,85.32
2022-11-22T03:30:10.773Z,84.93
2022-11-22T03:31:14.446Z,85.34
2022-11-22T03:32:17.354Z,85.40
2022-11-22T03:33:22.162Z,85.25
2022-11-22T03:34:24.811Z,85.30
2022-11-22T03:35:28.568Z,85.23
2022-11-22T03:36:31.274Z,85.25
2022-11-22T03:37:35.033Z,85.56
2022-11-22T03:38:37.693Z,86.14
2022-11-22T03:39:41.374Z,85.85
2022-11-22T03:40:46.663Z,85.61
2022-11-22T03:41:50.473Z,84.92
2022-11-22T03:42:53.236Z,84.99
2022-11-22T03:43:58.230Z,84.83
2022-11-22T03:45:03.588Z,85.55
2022-11-22T03:46:06.411Z,84.90
2022-11-22T03:47:10.215Z,84.95
2022-11-22T03:48:13.114Z,85.33
2022-11-22T03:49:17.015Z,85.54
2022-11-22T03:50:20.833Z,85.71
2022-11-22T03:51:23.516Z,85.00
2022-11-22T03:52:27.263Z,85.57
2022-11-22T03:53:29.956Z,85.34
2022-11-22T03:54:33.692Z,84.75
2022-11-22T03:55:36.635Z,84.84
2022-11-22T03:56:40.410Z,85.50
2022-11-22T03:57:43.073Z,85.56
2022-11-22T03:58:46.876Z,85.37
2022-11-22T03:59:49.528Z,84.90
2022-11-22T04:00:54.645Z,85.22
2022-11-22T04:01:57.488Z,85.10
2022-11-22T04:03:01.350Z,85.71
2022-11-22T04:04:04.427Z,85.87
2022-11-22T04:05:08.915Z,85.61
2022-11-22T04:06:11.585Z,85.98
2022-11-22T04:07:15.373Z,85.73
2022-11-22T04:08:18.137Z,85.81
2022-11-22T04:09:21.945Z,85.76
2022-11-22T04:10:25.043Z,85.05
2022-11-22T04:11:28.785Z,85.61
2022-11-22T04:12:31.545Z,85.28
2022-11-22T04:13:49.066Z,85.67
2022-11-22T04:15:10.775Z,85.12
2022-11-22T04:16:14.964Z,84.63
2022-11-22T04:17:38.816Z,84.74
2022-11-22T04:18:41.473Z,84.94
2022-11-22T04:20:07.655Z,85.24
2022-11-22T04:21:28.773Z,85.77
2022-11-22T04:22:31.436Z,84.83
2022-11-22T04:23:35.243Z,84.90
2022-11-22T04:24:56.365Z,85.15
2022-11-22T04:25:59.076Z,84.69
2022-11-22T04:27:02.847Z,84.52
2022-11-22T04:28:06.555Z,84.75
2022-11-22T04:29:10.721Z,84.76
2022-11-22T04:30:18.959Z,84.77
2022-11-22T04:31:43.080Z,84.87
2022-11-22T04:32:46.950Z,85.56
2022-11-22T04:33:49.665Z,84.92
2022-11-22T04:34:53.416Z,85.53
2022-11-22T04:35:56.194Z,85.15
2022-11-22T04:36:59.994Z,85.39
2022-11-22T04:38:02.675Z,85.34
2022-11-22T04:39:06.515Z,85.30
2022-11-22T04:40:11.648Z,85.16
2022-11-22T04:41:14.381Z,85.29
2022-11-22T04:42:47.025Z,85.33
2022-11-22T04:44:07.808Z,84.72
2022-11-22T04:45:12.240Z,85.21
2022-11-22T04:46:15.686Z,84.80
2022-11-22T04:47:38.626Z,84.59
2022-11-22T04:48:42.695Z,84.46
2022-11-22T04:49:45.455Z,84.51
2022-11-22T04:51:06.303Z,84.77
2022-11-22T04:52:27.944Z,84.88
2022-11-22T04:53:32.042Z,85.05
2022-11-22T04:54:34.795Z,84.64
2022-11-22T04:55:38.512Z,84.68
2022-11-22T04:56:41.245Z,84.50
2022-11-22T04:57:45.035Z,84.75
2022-11-22T04:58:47.786Z,84.71
2022-11-22T04:59:51.695Z,85.03
2022-11-22T05:00:54.381Z,84.76
2022-11-22T05:01:58.202Z,84.63
2022-11-22T05:03:02.689Z,84.67
2022-11-22T05:04:06.684Z,84.76
2022-11-22T05:05:10.044Z,84.88
2022-11-22T05:06:15.813Z,84.83
2022-11-22T05:07:18.700Z,85.26
2022-11-22T05:08:22.471Z,84.90
2022-11-22T05:09:25.200Z,83.84
2022-11-22T05:10:28.935Z,83.86
2022-11-22T05:11:31.573Z,84.46
2022-11-22T05:12:35.366Z,85.03
2022-11-22T05:13:39.200Z,84.58
2022-11-22T05:14:43.047Z,85.07
2022-11-22T05:15:45.696Z,85.19
2022-11-22T05:16:49.466Z,85.11
2022-11-22T05:17:52.197Z,85.03
2022-11-22T05:19:00.405Z,85.39
2022-11-22T05:20:03.356Z,85.38
2022-11-22T05:21:08.143Z,85.57
2022-11-22T05:22:10.801Z,85.26
2022-11-22T05:23:31.975Z,85.64
2022-11-22T05:24:34.646Z,85.91
2022-11-22T05:25:38.407Z,85.71
2022-11-22T05:26:42.215Z,85.96
2022-11-22T05:27:45.064Z,85.66
2022-11-22T05:28:48.776Z,85.99
2022-11-22T05:29:51.393Z,85.62
2022-11-22T05:30:55.145Z,86.35
2022-11-22T05:31:57.871Z,85.55
2022-11-22T05:33:01.575Z,86.44
2022-11-22T05:34:05.616Z,86.12
2022-11-22T05:35:10.032Z,85.99
2022-11-22T05:36:13.274Z,86.03
2022-11-22T05:37:16.998Z,86.04
2022-11-22T05:38:19.683Z,85.49
2022-11-22T05:39:23.392Z,85.85
2022-11-22T05:40:26.647Z,85.43
2022-11-22T05:41:30.362Z,85.85
2022-11-22T05:42:33.696Z,85.88
2022-11-22T05:43:37.446Z,86.28
2022-11-22T05:44:40.146Z,86.37
2022-11-22T05:45:43.964Z,86.54
2022-11-22T05:46:46.666Z,86.20
2022-11-22T05:47:50.406Z,86.54
2022-11-22T05:48:54.567Z,86.59
2022-11-22T05:49:59.727Z,86.54
2022-11-22T05:51:05.355Z,86.49
2022-11-22T05:52:09.117Z,86.10
2022-11-22T05:53:12.160Z,86.62
2022-11-22T05:54:16.095Z,86.44
2022-11-22T05:55:18.795Z,86.60
2022-11-22T05:56:24.634Z,86.03
2022-11-22T05:57:27.934Z,85.79
2022-11-22T05:58:31.641Z,86.06
2022-11-22T05:59:34.444Z,86.39
2022-11-22T06:00:38.166Z,86.70
2022-11-22T06:01:42.267Z,86.93
2022-11-22T06:02:45.010Z,86.40
2022-11-22T06:03:49.258Z,85.96
2022-11-22T06:04:52.096Z,86.50
2022-11-22T06:05:57.267Z,86.41
2022-11-22T06:06:59.874Z,86.63
2022-11-22T06:08:03.721Z,86.75
2022-11-22T06:09:06.474Z,86.37
2022-11-22T06:10:11.133Z,87.23
2022-11-22T06:11:15.666Z,86.84
2022-11-22T06:12:19.388Z,87.20
2022-11-22T06:13:22.071Z,87.26
2022-11-22T06:14:25.789Z,86.97
2022-11-22T06:15:28.685Z,87.58
2022-11-22T06:16:32.828Z,87.97
2022-11-22T06:17:35.503Z,88.12
2022-11-22T06:18:39.505Z,87.75
2022-11-22T06:19:42.447Z,87.62
2022-11-22T06:20:46.373Z,87.68
2022-11-22T06:21:50.415Z,86.72
2022-11-22T06:22:54.164Z,86.86
2022-11-22T06:23:56.897Z,87.14
2022-11-22T06:25:00.736Z,87.25
2022-11-22T06:26:04.819Z,87.42
2022-11-22T06:27:08.531Z,87.22
2022-11-22T06:28:11.206Z,87.52
2022-11-22T06:29:15.173Z,87.36
2022-11-22T06:30:17.915Z,87.33
2022-11-22T06:31:23.179Z,87.07
2022-11-22T06:32:25.975Z,87.33
2022-11-22T06:33:29.970Z,87.44
2022-11-22T06:34:33.793Z,87.14
2022-11-22T06:35:36.445Z,86.95
2022-11-22T06:36:40.542Z,86.99
2022-11-22T06:37:45.775Z,86.79
2022-11-22T06:38:48.838Z,87.48
2022-11-22T06:39:52.655Z,87.61
2022-11-22T06:41:00.425Z,86.83
2022-11-22T06:42:04.176Z,87.47
2022-11-22T06:43:06.776Z,87.47
2022-11-22T06:44:11.313Z,87.45
2022-11-22T06:45:14.266Z,86.95
2022-11-22T06:46:18.818Z,87.34
2022-11-22T06:47:21.588Z,87.75
2022-11-22T06:48:25.584Z,87.48
2022-11-22T06:49:28.813Z,87.96
2022-11-22T06:50:32.797Z,87.66
2022-11-22T06:51:35.522Z,87.37
2022-11-22T06:52:39.375Z,87.92
2022-11-22T06:53:48.567Z,87.83
2022-11-22T06:54:52.957Z,87.93
2022-11-22T06:56:01.590Z,88.32
2022-11-22T06:57:05.519Z,88.13
2022-11-22T06:58:08.334Z,88.57
2022-11-22T06:59:12.246Z,88.85
2022-11-22T07:00:16.104Z,88.51
2022-11-22T07:01:21.752Z,88.64
2022-11-22T07:02:24.556Z,89.08
2022-11-22T07:03:28.313Z,89.25
2022-11-22T07:04:31.986Z,89.33
2022-11-22T07:05:34.719Z,89.75
2022-11-22T07:06:39.746Z,89.70
2022-11-22T07:07:42.564Z,89.77
2022-11-22T07:08:48.166Z,89.67
2022-11-22T07:09:56.223Z,90.21
2022-11-22T07:11:03.031Z,90.30
2022-11-22T07:12:07.104Z,90.26
2022-11-22T07:13:09.799Z,90.16
2022-11-22T07:14:13.604Z,89.95
2022-11-22T07:15:16.493Z,90.07
2022-11-22T07:16:22.156Z,89.96
2022-11-22T07:17:24.836Z,90.15
2022-11-22T07:18:28.723Z,90.09
2022-11-22T07:19:33.463Z,90.54
2022-11-22T07:20:36.127Z,90.72
2022-11-22T07:21:39.913Z,90.85
2022-11-22T07:22:42.641Z,91.35
2022-11-22T07:23:49.367Z,91.48
2022-11-22T07:24:53.085Z,91.38
2022-11-22T07:25:55.859Z,90.82
2022-11-22T07:26:59.573Z,90.85
2022-11-22T07:28:02.261Z,91.12
2022-11-22T07:29:06.136Z,91.30
2022-11-22T07:30:10.414Z,91.64
2022-11-22T07:31:15.396Z,91.84
2022-11-22T07:32:18.163Z,91.96
2022-11-22T07:33:21.832Z,92.16
2022-11-22T07:34:25.555Z,92.14
2022-11-22T07:35:29.179Z,92.44
2022-11-22T07:36:32.929Z,92.43
2022-11-22T07:37:35.676Z,92.55
2022-11-22T07:38:40.048Z,93.25
2022-11-22T07:39:45.244Z,93.40
2022-11-22T07:40:47.953Z,93.84
2022-11-22T07:41:51.617Z,94.04
2022-11-22T07:42:58.328Z,94.06
2022-11-22T07:44:02.522Z,93.66
2022-11-22T07:45:05.957Z,93.66
2022-11-22T07:46:13.275Z,93.74
2022-11-22T07:47:21.458Z,93.70
2022-11-22T07:48:26.656Z,93.39
2022-11-22T07:49:30.767Z,93.88
2022-11-22T07:50:34.414Z,93.78
2022-11-22T07:51:38.126Z,94.15
2022-11-22T07:52:40.876Z,94.29
2022-11-22T07:53:44.716Z,94.32
2022-11-22T07:54:49.835Z,94.30
2022-11-22T07:55:52.574Z,94.51
2022-11-22T07:56:56.265Z,94.28
2022-11-22T07:57:59.616Z,94.45
2022-11-22T07:59:03.435Z,94.31
2022-11-22T08:00:07.279Z,94.80
2022-11-22T08:01:12.374Z,94.98
2022-11-22T08:02:15.186Z,95.09
2022-11-22T08:03:22.665Z,94.75
2022-11-22T08:04:29.185Z,94.87
2022-11-22T08:05:31.836Z,95.17
2022-11-22T08:06:35.535Z,94.93
2022-11-22T08:07:38.347Z,95.16
2022-11-22T08:08:42.365Z,95.28
2022-11-22T08:09:45.132Z,94.95
2022-11-22T08:10:50.241Z,95.35
2022-11-22T08:11:52.995Z,95.21
2022-11-22T08:13:00.512Z,95.18
2022-11-22T08:14:05.473Z,95.55
2022-11-22T08:15:10.174Z,95.63
2022-11-22T08:16:16.065Z,95.27
2022-11-22T08:17:19.796Z,95.36
2022-11-22T08:18:22.593Z,95.31
2022-11-22T08:19:26.392Z,95.60
2022-11-22T08:20:29.033Z,95.48
2022-11-22T08:21:32.814Z,95.58
2022-11-22T08:22:35.937Z,95.26
2022-11-22T08:23:40.379Z,95.18
2022-11-22T08:24:44.187Z,95.23
2022-11-22T08:25:49.473Z,95.03
2022-11-22T08:26:52.584Z,95.65
2022-11-22T08:27:56.284Z,95.23
2022-11-22T08:28:59.995Z,95.59
2022-11-22T08:30:02.753Z,95.13
2022-11-22T08:31:08.678Z,95.37
2022-11-22T08:32:12.479Z,95.12
2022-11-22T08:33:16.375Z,95.12
2022-11-22T08:34:20.072Z,94.93
2022-11-22T08:35:22.864Z,94.86
2022-11-22T08:36:26.610Z,95.07
2022-11-22T08:37:29.330Z,95.08
2022-11-22T08:38:33.336Z,94.74
2022-11-22T08:39:37.034Z,94.80
2022-11-22T08:40:42.472Z,94.48
2022-11-22T08:41:47.645Z,94.78
2022-11-22T08:42:50.305Z,94.56
2022-11-22T08:43:55.456Z,94.62
2022-11-22T08:44:59.273Z,94.72
2022-11-22T08:46:03.413Z,94.89
2022-11-22T08:47:07.205Z,94.87
2022-11-22T08:48:10.970Z,95.18
2022-11-22T08:49:14.997Z,95.17
2022-11-22T08:50:18.363Z,95.36
2022-11-22T08:51:22.137Z,95.32
2022-11-22T08:52:25.915Z,95.38
2022-11-22T08:53:30.104Z,95.54
2022-11-22T08:54:37.687Z,95.57
2022-11-22T08:55:42.551Z,95.05
2022-11-22T08:56:47.703Z,95.08
2022-11-22T08:57:50.350Z,95.09
2022-11-22T08:58:54.127Z,94.78
2022-11-22T08:59:57.208Z,94.84
2022-11-22T09:01:06.206Z,94.67
2022-11-22T09:02:10.995Z,94.54
2022-11-22T09:03:13.815Z,94.35
2022-11-22T09:04:17.589Z,94.11
2022-11-22T09:05:20.306Z,94.20
2022-11-22T09:10:35.584Z,93.45
2022-11-22T09:11:38.294Z,93.80
2022-11-22T09:12:46.864Z,94.22
2022-11-22T09:13:50.551Z,94.06
2022-11-22T09:14:54.507Z,94.12
2022-11-22T09:16:02.041Z,94.40
2022-11-22T09:17:06.385Z,94.44
2022-11-22T09:18:09.061Z,94.29
2022-11-22T09:19:12.775Z,94.13
2022-11-22T09:20:15.881Z,94.01
2022-11-22T09:21:20.895Z,94.20
2022-11-22T09:22:28.457Z,94.13
2022-11-22T09:23:33.101Z,94.21
2022-11-22T09:24:36.975Z,94.33
2022-11-22T09:25:39.656Z,93.74
2022-11-22T09:26:43.431Z,93.52
2022-11-22T09:27:48.627Z,93.88
2022-11-22T09:28:53.305Z,93.48
2022-11-22T09:29:57.043Z,93.51
2022-11-22T09:31:00.952Z,94.11
2022-11-22T09:32:04.822Z,93.81
2022-11-22T09:33:08.464Z,93.65
2022-11-22T09:34:12.334Z,93.40
2022-11-22T09:35:17.535Z,93.47
2022-11-22T09:36:22.029Z,93.53
2022-11-22T09:37:25.841Z,93.76
2022-11-22T09:38:29.904Z,93.83
2022-11-22T09:39:33.883Z,93.59
2022-11-22T09:40:37.943Z,93.40
2022-11-22T09:42:06.142Z,93.21
2022-11-22T09:43:18.766Z,93.29
2022-11-22T09:44:24.812Z,92.51
2022-11-22T09:45:56.047Z,91.54
2022-11-22T09:47:04.575Z,89.67
2022-11-22T09:48:26.938Z,91.19
2022-11-22T09:49:31.890Z,90.57
2022-11-22T09:50:43.991Z,90.99
2022-11-22T09:51:51.103Z,90.95
2022-11-22T09:52:56.464Z,90.22
2022-11-22T09:54:05.668Z,90.70
2022-11-22T09:55:16.790Z,89.84
2022-11-22T09:56:24.585Z,89.91
2022-11-22T09:57:32.359Z,89.67
2022-11-22T09:58:40.358Z,88.97
2022-11-22T09:59:46.067Z,89.01
2022-11-22T10:00:52.528Z,88.99
2022-11-22T10:02:16.929Z,89.00
2022-11-22T10:03:28.453Z,88.54
2022-11-22T10:04:37.235Z,88.61
2022-11-22T10:05:51.590Z,88.86
2022-11-22T10:06:57.943Z,88.77
2022-11-22T10:08:04.678Z,88.51
2022-11-22T10:09:20.685Z,87.32
2022-11-22T10:10:27.945Z,86.32
2022-11-22T10:11:37.192Z,86.92
2022-11-22T10:12:46.205Z,87.12
2022-11-22T10:13:57.854Z,86.75
2022-11-22T10:15:05.229Z,86.03
2022-11-22T10:16:14.646Z,86.18
2022-11-22T10:17:25.843Z,86.64
2022-11-22T10:18:41.202Z,87.38
2022-11-22T10:19:47.388Z,86.13
2022-11-22T10:20:50.189Z,87.07
2022-11-22T10:21:53.874Z,86.87
2022-11-22T10:22:57.466Z,85.93
2022-11-22T10:24:01.216Z,86.58
2022-11-22T10:25:10.083Z,86.39
2022-11-22T10:26:23.113Z,85.54
2022-11-22T10:27:29.776Z,85.37
2022-11-22T10:28:36.726Z,85.10
2022-11-22T10:29:47.304Z,84.46
2022-11-22T10:30:57.286Z,84.15
2022-11-22T10:32:07.416Z,83.84
2022-11-22T10:33:14.217Z,83.48
2022-11-22T10:34:26.475Z,83.01
2022-11-22T10:35:45.445Z,82.76
2022-11-22T10:36:52.652Z,82.31
2022-11-22T10:38:02.985Z,82.38
2022-11-22T10:39:19.435Z,82.28
2022-11-22T10:40:27.130Z,82.03
2022-11-22T10:41:40.518Z,80.44
2022-11-22T10:42:58.405Z,81.28
2022-11-22T10:44:09.473Z,80.44
2022-11-22T10:45:18.083Z,80.11
2022-11-22T10:46:28.057Z,80.98
2022-11-22T10:47:51.645Z,80.08
2022-11-22T10:49:04.854Z,79.08
2022-11-22T10:50:15.097Z,78.59
2022-11-22T10:51:23.606Z,77.55
2022-11-22T10:52:35.131Z,77.39
2022-11-22T10:53:47.310Z,78.16
2022-11-22T10:54:55.375Z,77.36
2022-11-22T10:56:02.046Z,76.79
2022-11-22T10:57:13.167Z,75.99
2022-11-22T10:58:25.022Z,75.49
2022-11-22T10:59:41.642Z,74.85
2022-11-22T11:00:49.230Z,74.98
2022-11-22T11:02:24.161Z,75.19
2022-11-22T11:03:30.756Z,74.26
2022-11-22T11:04:37.072Z,74.33
2022-11-22T11:07:12.675Z,73.49
2022-11-22T11:08:41.995Z,73.09
2022-11-22T11:11:07.895Z,72.56
2022-11-22T11:12:17.285Z,72.70
2022-11-22T11:13:24.595Z,72.03
2022-11-22T11:14:32.554Z,71.29
2022-11-22T11:15:39.168Z,70.66
2022-11-22T11:16:44.496Z,70.72
2022-11-22T11:17:52.517Z,70.17
2022-11-22T11:18:58.985Z,70.51
2022-11-22T11:20:05.065Z,69.38
2022-11-22T11:21:09.162Z,69.83
2022-11-22T11:22:18.575Z,69.21
2022-11-22T11:23:27.045Z,68.49
2022-11-22T11:24:32.440Z,68.82
2022-11-22T11:25:40.534Z,68.77
2022-11-22T11:26:45.932Z,69.94
2022-11-22T11:27:48.884Z,69.33
2022-11-22T11:28:52.917Z,69.25
2022-11-22T11:30:02.765Z,69.06
2022-11-22T11:31:09.704Z,69.09
2022-11-22T11:32:15.226Z,69.03
2022-11-22T11:33:22.006Z,69.08
2022-11-22T11:34:28.280Z,68.27
2022-11-22T11:35:32.747Z,68.59
2022-11-22T11:36:43.712Z,67.84
2022-11-22T11:37:46.560Z,67.97
2022-11-22T11:38:55.978Z,67.67
2022-11-22T11:39:58.857Z,67.44
2022-11-22T11:41:20.142Z,67.24
2022-11-22T11:42:25.945Z,68.26
2022-11-22T11:43:29.625Z,68.13
2022-11-22T11:44:36.649Z,67.29
2022-11-22T11:45:39.544Z,68.14
2022-11-22T11:46:49.193Z,67.85
2022-11-22T11:47:53.315Z,68.03
2022-11-22T11:48:58.285Z,67.77
2022-11-22T11:50:01.407Z,67.68
2022-11-22T11:51:10.346Z,67.32
2022-11-22T11:52:20.895Z,66.76
2022-11-22T11:53:26.304Z,67.46
2022-11-22T11:54:40.880Z,65.99
2022-11-22T11:55:43.729Z,66.20
2022-11-22T11:56:49.696Z,65.04
2022-11-22T11:57:53.223Z,64.91
2022-11-22T11:58:58.596Z,65.14
2022-11-22T12:00:05.098Z,64.57
2022-11-22T12:01:11.605Z,65.58
2022-11-22T12:02:17.374Z,64.68
2022-11-22T12:03:23.244Z,64.22
2022-11-22T12:04:30.141Z,64.16
2022-11-22T12:05:34.886Z,64.29
2022-11-22T12:06:38.602Z,63.45
2022-11-22T12:07:45.043Z,63.44
2022-11-22T12:08:47.940Z,63.11
2022-11-22T12:09:53.036Z,63.07
2022-11-22T12:10:59.751Z,62.62
2022-11-22T12:12:30.016Z,63.07
2022-11-22T12:13:57.657Z,64.21
2022-11-22T12:15:11.697Z,63.75
2022-11-22T12:16:20.657Z,63.13
2022-11-22T12:17:26.761Z,63.32
2022-11-22T12:18:40.323Z,63.35
2022-11-22T12:19:52.450Z,63.05
2022-11-22T12:21:02.838Z,62.60
2022-11-22T12:22:29.431Z,63.05
2022-11-22T12:23:45.473Z,62.55
2022-11-22T12:25:24.350Z,63.01
2022-11-22T12:26:20.124Z,62.82
2022-11-22T12:27:23.961Z,63.25
2022-11-22T12:28:29.344Z,63.98
2022-11-22T12:29:35.598Z,64.11
2022-11-22T12:30:39.925Z,64.29
2022-11-22T12:31:46.463Z,64.10
2022-11-22T12:32:56.561Z,64.09
2022-11-22T12:34:03.956Z,64.19
2022-11-22T12:35:12.963Z,64.99
2022-11-22T12:36:18.324Z,64.74
2022-11-22T12:37:25.606Z,64.78
2022-11-22T12:38:32.178Z,65.28
2022-11-22T12:39:38.105Z,64.83
2022-11-22T12:40:43.470Z,65.08
2022-11-22T12:41:48.246Z,65.25
2022-11-22T12:42:54.508Z,65.75
2022-11-22T12:43:59.986Z,66.01
2022-11-22T12:45:07.394Z,65.70
2022-11-22T12:46:12.760Z,65.70
2022-11-22T12:47:19.827Z,65.93
2022-11-22T12:48:26.257Z,65.90
2022-11-22T12:49:34.549Z,66.11
2022-11-22T12:50:41.914Z,66.12
2022-11-22T12:51:49.014Z,66.22
2022-11-22T12:52:55.845Z,66.14
2022-11-22T12:54:03.334Z,66.19
2022-11-22T12:55:10.874Z,66.13
2022-11-22T12:56:26.156Z,66.46
2022-11-22T12:57:38.685Z,66.09
2022-11-22T12:58:47.793Z,66.43
2022-11-22T12:59:56.267Z,66.36
2022-11-22T13:01:07.475Z,66.23
2022-11-22T13:02:17.259Z,66.47
2022-11-22T13:03:24.056Z,66.77
2022-11-22T13:04:32.197Z,66.69
2022-11-22T13:05:40.684Z,66.41
2022-11-22T13:06:49.985Z,66.49
2022-11-22T13:07:58.597Z,66.64
2022-11-22T13:09:04.673Z,66.41
2022-11-22T13:10:10.729Z,66.92
2022-11-22T13:11:18.403Z,66.85
2022-11-22T13:12:31.048Z,67.30
2022-11-22T13:13:38.637Z,67.32
2022-11-22T13:14:46.126Z,67.52
2022-11-22T13:15:51.457Z,67.43
2022-11-22T13:16:55.688Z,67.40
2022-11-22T13:17:58.903Z,67.60
2022-11-22T13:19:05.435Z,67.74
2022-11-22T13:20:16.085Z,67.56
2022-11-22T13:21:27.316Z,67.80
2022-11-22T13:22:34.215Z,67.98
2022-11-22T13:23:54.804Z,67.40
2022-11-22T13:25:20.996Z,68.15
2022-11-22T13:26:30.896Z,68.36
2022-11-22T13:27:37.513Z,67.80
2022-11-22T13:28:42.737Z,67.92
2022-11-22T13:29:46.034Z,67.78
2022-11-22T13:31:05.217Z,67.95
2022-11-22T13:32:23.220Z,68.41
2022-11-22T13:33:26.610Z,68.39
2022-11-22T13:34:31.012Z,68.03
2022-11-22T13:35:36.968Z,68.12
2022-11-22T13:36:43.896Z,68.82
2022-11-22T13:37:48.716Z,67.94
2022-11-22T13:38:52.572Z,68.93
2022-11-22T13:39:56.556Z,68.69
2022-11-22T13:41:23.532Z,68.84
2022-11-22T13:42:30.772Z,68.67
2022-11-22T13:43:51.929Z,68.60
2022-11-22T13:45:21.804Z,69.13
2022-11-22T13:47:00.707Z,69.03
2022-11-22T13:48:04.765Z,68.91
2022-11-22T13:49:14.169Z,69.29
2022-11-22T13:50:54.696Z,69.11
2022-11-22T13:51:59.618Z,69.22
2022-11-22T13:53:23.011Z,69.80
2022-11-22T13:54:58.971Z,69.75
2022-11-22T13:56:39.667Z,69.80
2022-11-22T13:57:44.495Z,70.69
2022-11-22T13:58:56.067Z,70.16
2022-11-22T14:00:50.664Z,70.67
2022-11-22T14:02:00.183Z,70.94
2022-11-22T14:03:29.718Z,71.72
2022-11-22T14:04:44.335Z,71.76
2022-11-22T14:05:48.448Z,71.68
2022-11-22T14:06:53.716Z,71.75
2022-11-22T14:07:59.186Z,71.89
2022-11-22T14:09:32.077Z,71.94
2022-11-22T14:10:39.846Z,72.65
2022-11-22T14:11:49.213Z,72.74
2022-11-22T14:13:06.090Z,72.69
2022-11-22T14:14:17.417Z,73.09
2022-11-22T14:15:32.416Z,73.21
2022-11-22T14:16:44.453Z,73.11
2022-11-22T14:17:54.328Z,73.56
2022-11-22T14:19:09.347Z,73.40
2022-11-22T14:20:25.901Z,73.77
2022-11-22T14:21:47.430Z,74.10
2022-11-22T14:22:55.785Z,73.99